createdAt,value
2022-12-01T00:04:48.748Z,6.69
2022-12-01T00:10:08.642Z,6.88
2022-12-01T00:15:10.656Z,5.24
2022-12-01T00:20:12.105Z,4.20
2022-12-01T00:25:15.988Z,4.71
2022-12-01T00:30:19.013Z,6.22
2022-12-01T00:35:20.112Z,6.89
2022-12-01T00:40:21.296Z,6.82
2022-12-01T00:45:22.566Z,5.29
2022-12-01T00:50:23.545Z,4.86
2022-12-01T00:55:25.096Z,6.27
2022-12-01T01:00:26.222Z,7.17
2022-12-01T01:05:27.322Z,7.69
2022-12-01T01:10:28.364Z,6.76
2022-12-01T01:15:29.628Z,5.05
2022-12-01T01:20:31.830Z,4.87
2022-12-01T01:25:33.039Z,6.41
2022-12-01T01:30:34.492Z,7.35
2022-12-01T01:35:35.926Z,7.08
2022-12-01T01:40:55.757Z,5.43
2022-12-01T01:45:57.308Z,4.75
2022-12-01T01:50:59.060Z,6.21
2022-12-01T01:56:02.405Z,7.18
2022-12-01T02:01:04.305Z,6.23
2022-12-01T02:06:07.240Z,4.78
2022-12-01T02:11:47.512Z,3.92
2022-12-01T02:17:13.472Z,3.80
2022-12-01T02:22:53.866Z,5.82
2022-12-01T02:28:20.475Z,7.22
2022-12-01T02:33:40.527Z,6.31
2022-12-01T02:39:00.681Z,5.02
2022-12-01T02:44:04.321Z,4.30
2022-12-01T02:49:19.913Z,3.84
2022-12-01T02:54:23.474Z,3.48
2022-12-01T02:59:25.413Z,3.18
2022-12-01T03:04:35.214Z,2.96
2022-12-01T03:09:49.950Z,3.60
2022-12-01T03:15:02.727Z,5.76
2022-12-01T03:20:18.691Z,7.08
2022-12-01T03:25:23.694Z,6.97
2022-12-01T03:30:26.182Z,5.47
2022-12-01T03:35:33.726Z,4.53
2022-12-01T03:40:37.489Z,3.97
2022-12-01T03:46:07.183Z,3.59
2022-12-01T03:51:17.585Z,3.28
2022-12-01T03:56:23.784Z,3.06
2022-12-01T04:01:31.864Z,3.60
2022-12-01T04:06:34.183Z,5.64
2022-12-01T04:11:54.404Z,6.72
2022-12-01T04:16:55.477Z,7.71
2022-12-01T04:21:56.607Z,7.53
2022-12-01T04:26:57.735Z,5.68
2022-12-01T04:31:58.768Z,4.53
2022-12-01T04:37:00.125Z,4.15
2022-12-01T04:42:02.209Z,5.71
2022-12-01T04:47:04.549Z,6.81
2022-12-01T04:52:06.707Z,7.37
2022-12-01T04:57:07.870Z,7.62
2022-12-01T05:02:09.183Z,7.73
2022-12-01T05:07:10.484Z,6.50
2022-12-01T05:12:11.523Z,4.89
2022-12-01T05:17:12.687Z,4.05
2022-12-01T05:22:13.740Z,5.20
2022-12-01T05:27:15.212Z,6.53
2022-12-01T05:32:16.241Z,7.19
2022-12-01T05:37:17.421Z,7.57
2022-12-01T05:42:18.414Z,7.97
2022-12-01T05:47:19.723Z,7.10
2022-12-01T05:52:20.807Z,5.45
2022-12-01T05:57:21.867Z,4.44
2022-12-01T06:02:23.017Z,3.81
2022-12-01T06:07:25.253Z,3.35
2022-12-01T06:12:26.991Z,3.76
2022-12-01T06:17:28.612Z,5.74
2022-12-01T06:22:29.721Z,6.96
2022-12-01T06:27:30.957Z,7.73
2022-12-01T06:32:32.630Z,8.14
2022-12-01T06:37:33.814Z,6.83
2022-12-01T06:42:35.002Z,5.55
2022-12-01T06:47:36.219Z,4.78
2022-12-01T06:52:37.288Z,4.23
2022-12-01T06:57:39.427Z,3.79
2022-12-01T07:02:40.863Z,4.22
2022-12-01T07:07:42.414Z,6.18
2022-12-01T07:12:43.764Z,7.35
2022-12-01T07:17:44.959Z,8.03
2022-12-01T07:22:46.069Z,7.83
2022-12-01T07:27:47.184Z,6.13
2022-12-01T07:32:48.581Z,5.11
2022-12-01T07:37:56.066Z,4.48
2022-12-01T07:42:57.148Z,5.18
2022-12-01T07:47:58.967Z,6.78
2022-12-01T07:53:00.686Z,7.65
2022-12-01T07:58:01.987Z,8.23
2022-12-01T08:03:03.199Z,7.93
2022-12-01T08:08:04.652Z,6.22
2022-12-01T08:13:05.895Z,5.17
2022-12-01T08:18:07.082Z,4.51
2022-12-01T08:23:08.059Z,4.09
2022-12-01T08:28:09.349Z,3.78
2022-12-01T08:33:10.670Z,4.29
2022-12-01T08:38:11.883Z,5.92
2022-12-01T08:43:34.776Z,7.09
2022-12-01T08:48:35.798Z,7.80
2022-12-01T08:53:45.310Z,8.64
2022-12-01T08:58:46.940Z,8.51
2022-12-01T09:03:48.522Z,6.73
2022-12-01T09:08:49.692Z,5.60
2022-12-01T09:13:54.567Z,4.86
2022-12-01T09:18:55.968Z,5.06
2022-12-01T09:23:57.241Z,6.91
2022-12-01T09:29:00.514Z,8.04
2022-12-01T09:34:07.363Z,8.62
2022-12-01T09:39:12.779Z,8.32
2022-12-01T09:44:38.207Z,6.77
2022-12-01T09:49:56.887Z,5.80
2022-12-01T09:54:59.718Z,5.23
2022-12-01T10:00:06.734Z,6.41
2022-12-01T10:05:16.148Z,7.99
2022-12-01T10:10:29.583Z,8.97
2022-12-01T10:15:50.381Z,8.41
2022-12-01T10:21:10.416Z,6.62
2022-12-01T10:26:41.931Z,5.85
2022-12-01T10:32:01.809Z,8.13
2022-12-01T10:37:03.527Z,9.07
2022-12-01T10:42:16.072Z,7.28
2022-12-01T10:47:23.924Z,6.13
2022-12-01T10:52:35.729Z,5.48
2022-12-01T10:57:37.394Z,5.43
2022-12-01T11:02:42.805Z,7.25
2022-12-01T11:07:48.760Z,8.45
2022-12-01T11:12:56.724Z,8.48
2022-12-01T11:18:00.565Z,7.02
2022-12-01T11:23:26.129Z,6.12
2022-12-01T11:28:28.401Z,5.45
2022-12-01T11:33:39.116Z,5.70
2022-12-01T11:38:40.679Z,7.53
2022-12-01T11:44:01.115Z,8.42
2022-12-01T11:49:04.288Z,8.23
2022-12-01T11:54:30.507Z,6.75
2022-12-01T11:59:31.828Z,5.84
2022-12-01T12:04:52.217Z,5.27
2022-12-01T12:10:12.347Z,5.35
2022-12-01T12:15:52.472Z,7.26
2022-12-01T12:21:25.474Z,8.36
2022-12-01T12:26:58.952Z,7.23
2022-12-01T12:32:18.902Z,5.91
2022-12-01T12:37:44.185Z,5.77
2022-12-01T12:43:07.271Z,7.62
2022-12-01T12:48:24.261Z,7.93
2022-12-01T12:53:35.262Z,6.23
2022-12-01T12:58:52.444Z,5.85
2022-12-01T13:04:02.962Z,7.56
2022-12-01T13:09:19.386Z,8.35
2022-12-01T13:14:47.845Z,8.29
2022-12-01T13:19:49.463Z,6.54
2022-12-01T13:24:50.922Z,5.56
2022-12-01T13:29:55.205Z,5.67
2022-12-01T13:34:57.252Z,7.45
2022-12-01T13:40:26.428Z,8.49
2022-12-01T13:45:34.884Z,8.04
2022-12-01T13:50:45.819Z,6.40
2022-12-01T13:56:23.595Z,5.40
2022-12-01T14:01:25.010Z,4.98
2022-12-01T14:06:28.505Z,6.63
2022-12-01T14:11:31.416Z,8.00
2022-12-01T14:16:52.600Z,8.58
2022-12-01T14:21:53.839Z,7.40
2022-12-01T14:26:55.216Z,5.99
2022-12-01T14:31:59.398Z,6.98
2022-12-01T14:37:21.766Z,8.19
2022-12-01T14:43:06.179Z,7.93
2022-12-01T14:48:14.569Z,6.12
2022-12-01T14:53:27.021Z,5.22
2022-12-01T14:58:30.838Z,6.34
2022-12-01T15:03:37.616Z,7.84
2022-12-01T15:08:43.599Z,8.46
2022-12-01T15:13:53.566Z,7.20
2022-12-01T15:18:55.604Z,5.66
2022-12-01T15:23:56.701Z,4.77
2022-12-01T15:29:16.549Z,5.10
2022-12-01T15:34:23.713Z,7.10
2022-12-01T15:39:41.990Z,8.16
2022-12-01T15:44:44.403Z,8.63
2022-12-01T15:49:49.023Z,8.08
2022-12-01T15:54:50.734Z,6.21
2022-12-01T15:59:56.095Z,5.76
2022-12-01T16:05:20.700Z,7.01
2022-12-01T16:10:29.628Z,7.72
2022-12-01T16:15:30.724Z,7.98
2022-12-01T16:20:34.840Z,7.56
2022-12-01T16:25:38.948Z,5.71
2022-12-01T16:30:40.148Z,6.08
2022-12-01T16:35:41.424Z,7.14
2022-12-01T16:40:42.852Z,7.73
2022-12-01T16:45:46.164Z,6.35
2022-12-01T16:50:48.894Z,5.71
2022-12-01T16:55:56.205Z,7.71
2022-12-01T17:00:57.408Z,6.60
2022-12-01T17:06:00.659Z,5.20
2022-12-01T17:11:05.066Z,6.28
2022-12-01T17:16:08.273Z,7.47
2022-12-01T17:21:10.991Z,7.44
2022-12-01T17:26:14.919Z,5.48
2022-12-01T17:31:16.170Z,4.37
2022-12-01T17:36:18.300Z,3.73
2022-12-01T17:41:24.681Z,3.26
2022-12-01T17:46:26.066Z,3.69
2022-12-01T17:51:27.353Z,5.65
2022-12-01T17:56:28.460Z,6.69
2022-12-01T18:01:30.613Z,6.37
2022-12-01T18:06:32.235Z,4.86
2022-12-01T18:11:33.174Z,3.86
2022-12-01T18:16:35.090Z,3.30
2022-12-01T18:21:36.253Z,2.94
2022-12-01T18:26:39.104Z,3.76
2022-12-01T18:31:40.545Z,5.68
2022-12-01T18:36:42.049Z,6.75
2022-12-01T18:41:43.496Z,6.68
2022-12-01T18:46:44.779Z,5.08
2022-12-01T18:51:45.923Z,4.25
2022-12-01T18:56:54.205Z,5.38
2022-12-01T19:01:56.507Z,6.36
2022-12-01T19:06:59.321Z,6.29
2022-12-01T19:12:00.406Z,4.64
2022-12-01T19:17:01.496Z,4.10
2022-12-01T19:22:04.008Z,5.36
2022-12-01T19:27:05.056Z,6.14
2022-12-01T19:32:06.148Z,6.53
2022-12-01T19:37:07.266Z,5.91
2022-12-01T19:42:08.263Z,4.30
2022-12-01T19:47:09.628Z,3.95
2022-12-01T19:52:10.745Z,5.15
2022-12-01T19:57:11.936Z,5.92
2022-12-01T20:02:13.022Z,5.73
2022-12-01T20:07:15.152Z,4.18
2022-12-01T20:12:16.419Z,3.19
2022-12-01T20:17:17.956Z,2.77
2022-12-01T20:22:18.941Z,4.17
2022-12-01T20:27:20.033Z,5.36
2022-12-01T20:32:23.664Z,5.37
2022-12-01T20:37:24.974Z,3.82
2022-12-01T20:42:27.150Z,2.85
2022-12-01T20:47:28.248Z,3.32
2022-12-01T20:52:29.739Z,4.87
2022-12-01T20:57:30.923Z,5.83
2022-12-01T21:02:32.067Z,5.69
2022-12-01T21:07:33.643Z,4.17
2022-12-01T21:12:55.962Z,3.46
2022-12-01T21:18:07.432Z,4.97
2022-12-01T21:23:11.575Z,5.78
2022-12-01T21:28:31.314Z,4.24
2022-12-01T21:33:38.184Z,3.12
2022-12-01T21:38:41.499Z,2.50
2022-12-01T21:43:42.568Z,2.19
2022-12-01T21:48:45.214Z,3.50
2022-12-01T21:53:47.509Z,5.04
2022-12-01T21:58:49.311Z,5.29
2022-12-01T22:03:50.454Z,3.81
2022-12-01T22:08:58.905Z,2.79
2022-12-01T22:14:21.173Z,2.22
2022-12-01T22:19:31.179Z,2.02
2022-12-01T22:24:41.700Z,3.76
2022-12-01T22:29:45.042Z,5.23
2022-12-01T22:34:54.006Z,5.36
2022-12-01T22:39:56.045Z,3.83
2022-12-01T22:45:21.476Z,2.85
2022-12-01T22:50:26.035Z,2.24
2022-12-01T22:55:27.424Z,3.68
2022-12-01T23:00:28.522Z,5.18
2022-12-01T23:05:30.017Z,5.13
2022-12-01T23:10:34.288Z,3.49
2022-12-01T23:15:40.598Z,2.41
2022-12-01T23:20:43.961Z,2.14
2022-12-01T23:25:47.843Z,3.89
2022-12-01T23:30:52.081Z,5.18
2022-12-01T23:35:57.434Z,4.52
2022-12-01T23:41:03.776Z,2.89
2022-12-01T23:46:09.219Z,1.95
2022-12-01T23:51:19.145Z,1.80
2022-12-01T23:56:25.763Z,3.43
